createdAt,value
2017-09-21T00:02:17.979Z,76.50
2017-09-21T00:04:44.917Z,76.10
2017-09-21T00:07:11.125Z,76.10
2017-09-21T00:09:37.307Z,76.50
2017-09-21T00:12:03.476Z,76.50
2017-09-21T00:14:29.638Z,77.20
2017-09-21T00:16:56.182Z,77.30
2017-09-21T00:19:22.378Z,77.00
2017-09-21T00:21:48.574Z,76.50
2017-09-21T00:24:14.762Z,76.50
2017-09-21T00:26:40.906Z,76.80
2017-09-21T00:29:07.935Z,76.70
2017-09-21T00:31:34.402Z,76.50
2017-09-21T00:34:00.573Z,76.20
2017-09-21T00:36:27.748Z,76.60
2017-09-21T00:38:54.033Z,75.90
2017-09-21T00:41:20.190Z,75.90
2017-09-21T00:43:47.114Z,75.80
2017-09-21T00:46:13.298Z,75.80
2017-09-21T00:48:39.857Z,75.90
2017-09-21T00:51:06.428Z,76.30
2017-09-21T00:53:32.850Z,76.70
2017-09-21T00:55:59.707Z,76.80
2017-09-21T00:58:25.948Z,76.70
2017-09-21T01:00:52.154Z,76.60
2017-09-21T01:03:18.723Z,76.40
2017-09-21T01:05:45.005Z,76.50
2017-09-21T01:08:11.210Z,76.50
2017-09-21T01:10:37.393Z,76.50
2017-09-21T01:13:03.586Z,76.60
2017-09-21T01:15:30.599Z,77.10
2017-09-21T01:17:56.782Z,77.30
2017-09-21T01:20:24.176Z,77.30
2017-09-21T01:22:50.357Z,76.80
2017-09-21T01:25:16.553Z,77.20
2017-09-21T01:27:42.815Z,77.50
2017-09-21T01:30:09.763Z,77.90
2017-09-21T01:32:35.971Z,76.70
2017-09-21T01:35:02.166Z,76.70
2017-09-21T01:37:29.397Z,77.10
2017-09-21T01:39:55.707Z,77.30
2017-09-21T01:42:21.929Z,77.30
2017-09-21T01:44:48.147Z,77.30
2017-09-21T01:47:14.432Z,77.60
2017-09-21T01:49:40.715Z,77.80
2017-09-21T01:52:06.994Z,78.10
2017-09-21T01:54:33.981Z,78.10
2017-09-21T01:57:00.462Z,77.30
2017-09-21T01:59:26.663Z,77.10
2017-09-21T02:01:52.895Z,77.10
2017-09-21T02:04:19.102Z,77.20
2017-09-21T02:06:45.658Z,77.20
2017-09-21T02:09:12.394Z,76.90
2017-09-21T02:11:38.693Z,77.00
2017-09-21T02:14:05.254Z,76.80
2017-09-21T02:16:31.470Z,76.80
2017-09-21T02:18:57.693Z,77.00
2017-09-21T02:21:23.908Z,76.80
2017-09-21T02:23:50.113Z,78.00
2017-09-21T02:26:16.302Z,78.60
2017-09-21T02:28:43.736Z,78.90
2017-09-21T02:31:09.945Z,79.00
2017-09-21T02:33:36.104Z,78.80
2017-09-21T02:36:02.355Z,79.00
2017-09-21T02:38:28.880Z,79.20
2017-09-21T02:40:55.042Z,79.70
2017-09-21T02:43:21.567Z,80.10
2017-09-21T02:45:47.802Z,80.00
2017-09-21T02:48:13.989Z,79.80
2017-09-21T02:50:40.900Z,79.30
2017-09-21T02:53:07.930Z,79.40
2017-09-21T02:55:34.445Z,80.10
2017-09-21T02:58:00.592Z,80.10
2017-09-21T03:00:27.171Z,79.80
2017-09-21T03:02:54.091Z,80.40
2017-09-21T03:05:20.282Z,80.00
2017-09-21T03:07:46.439Z,79.90
2017-09-21T03:10:13.039Z,79.80
2017-09-21T03:12:39.939Z,79.90
2017-09-21T03:15:06.119Z,80.40
2017-09-21T03:17:32.319Z,80.30
2017-09-21T03:19:58.868Z,80.30
2017-09-21T03:22:25.050Z,80.00
2017-09-21T03:24:51.220Z,79.60
2017-09-21T03:27:17.413Z,79.10
2017-09-21T03:29:43.612Z,78.80
2017-09-21T03:32:09.755Z,78.60
2017-09-21T03:34:35.950Z,78.70
2017-09-21T03:37:02.125Z,78.60
2017-09-21T03:39:29.039Z,79.20
2017-09-21T03:41:55.194Z,79.00
2017-09-21T03:44:21.768Z,79.60
2017-09-21T03:46:48.006Z,80.20
2017-09-21T03:49:14.164Z,80.20
2017-09-21T03:51:40.378Z,80.60
2017-09-21T03:54:06.575Z,80.90
2017-09-21T03:56:32.758Z,80.70
2017-09-21T03:58:58.980Z,81.30
2017-09-21T04:01:25.119Z,80.90
2017-09-21T04:03:52.055Z,81.20
2017-09-21T04:06:18.954Z,81.10
2017-09-21T04:08:45.115Z,79.70
2017-09-21T04:11:11.289Z,79.40
2017-09-21T04:13:37.505Z,79.80
2017-09-21T04:16:03.706Z,80.00
2017-09-21T04:18:29.934Z,79.80
2017-09-21T04:20:56.108Z,80.20
2017-09-21T04:23:22.345Z,80.30
2017-09-21T04:25:48.972Z,80.30
2017-09-21T04:28:15.160Z,80.60
2017-09-21T04:30:41.346Z,80.70
2017-09-21T04:33:07.524Z,80.60
2017-09-21T04:35:33.705Z,80.30
2017-09-21T04:37:59.909Z,80.30
2017-09-21T04:40:26.160Z,79.90
2017-09-21T04:42:52.365Z,79.60
2017-09-21T04:45:18.552Z,79.50
2017-09-21T04:47:44.714Z,79.20
2017-09-21T04:50:11.283Z,79.80
2017-09-21T04:52:37.799Z,80.00
2017-09-21T04:55:04.026Z,80.80
2017-09-21T04:57:30.206Z,80.90
2017-09-21T04:59:56.468Z,81.30
2017-09-21T05:02:22.725Z,81.30
2017-09-21T05:04:48.879Z,81.30
2017-09-21T05:07:15.044Z,81.20
2017-09-21T05:09:41.307Z,81.20
2017-09-21T05:12:07.886Z,81.20
2017-09-21T05:14:34.076Z,81.20
2017-09-21T05:17:01.055Z,81.20
2017-09-21T05:19:27.321Z,81.20
2017-09-21T05:21:53.499Z,81.10
2017-09-21T05:24:19.679Z,81.20
2017-09-21T05:26:45.850Z,81.20
2017-09-21T05:29:12.455Z,81.20
2017-09-21T05:31:38.635Z,81.30
2017-09-21T05:34:04.887Z,81.30
2017-09-21T05:36:31.136Z,81.70
2017-09-21T05:38:57.690Z,81.60
2017-09-21T05:41:23.919Z,81.30
2017-09-21T05:43:50.502Z,81.30
2017-09-21T05:46:17.470Z,81.80
2017-09-21T05:48:43.696Z,81.40
2017-09-21T05:51:10.643Z,81.40
2017-09-21T05:53:36.800Z,81.40
2017-09-21T05:56:02.972Z,81.20
2017-09-21T05:58:29.105Z,81.00
2017-09-21T06:00:55.325Z,81.30
2017-09-21T06:03:21.495Z,81.30
2017-09-21T06:05:47.651Z,81.10
2017-09-21T06:08:14.607Z,80.00
2017-09-21T06:10:40.786Z,80.20
2017-09-21T06:13:06.934Z,78.00
2017-09-21T06:15:33.094Z,77.30
2017-09-21T06:17:59.291Z,76.80
2017-09-21T06:20:25.476Z,77.00
2017-09-21T06:22:51.620Z,76.80
2017-09-21T06:25:17.777Z,76.90
2017-09-21T06:27:44.311Z,76.10
2017-09-21T06:30:10.474Z,76.10
2017-09-21T06:32:36.657Z,76.10
2017-09-21T06:35:02.819Z,76.20
2017-09-21T06:37:29.023Z,76.10
2017-09-21T06:39:55.399Z,76.20
2017-09-21T06:42:21.614Z,75.30
2017-09-21T06:44:47.794Z,75.40
2017-09-21T06:47:13.994Z,75.60
2017-09-21T06:49:40.886Z,75.60
2017-09-21T06:52:07.064Z,75.10
2017-09-21T06:54:33.288Z,74.50
2017-09-21T06:56:59.472Z,74.60
2017-09-21T06:59:25.622Z,74.00
2017-09-21T07:01:51.794Z,73.50
2017-09-21T07:04:17.969Z,73.00
2017-09-21T07:06:44.136Z,72.00
2017-09-21T07:09:10.306Z,69.60
2017-09-21T07:11:36.513Z,67.70
2017-09-21T07:14:02.714Z,66.60
2017-09-21T07:16:28.874Z,65.80
2017-09-21T07:18:55.032Z,64.80
2017-09-21T07:21:21.195Z,63.00
2017-09-21T07:23:47.379Z,62.30
2017-09-21T07:26:14.303Z,62.00
2017-09-21T07:28:40.475Z,61.50
2017-09-21T07:31:06.665Z,60.30
2017-09-21T07:33:32.832Z,59.80
2017-09-21T07:35:58.995Z,58.80
2017-09-21T07:38:25.162Z,57.90
2017-09-21T07:40:51.372Z,57.50
2017-09-21T07:43:17.538Z,56.40
2017-09-21T07:45:43.726Z,56.40
2017-09-21T07:48:10.278Z,55.40
2017-09-21T07:50:36.483Z,55.60
2017-09-21T07:53:02.681Z,54.40
2017-09-21T07:55:29.574Z,54.50
2017-09-21T07:57:56.088Z,54.30
2017-09-21T08:00:22.988Z,54.50
2017-09-21T08:02:49.153Z,53.70
2017-09-21T08:05:15.363Z,53.40
2017-09-21T08:07:42.254Z,53.70
2017-09-21T08:10:08.426Z,52.70
2017-09-21T08:12:34.606Z,53.00
2017-09-21T08:15:00.763Z,52.80
2017-09-21T08:17:26.914Z,52.10
2017-09-21T08:19:53.129Z,51.80
2017-09-21T08:22:19.283Z,51.90
2017-09-21T08:24:45.459Z,52.00
2017-09-21T08:27:11.637Z,53.00
2017-09-21T08:29:38.538Z,54.20
2017-09-21T08:32:04.714Z,55.50
2017-09-21T08:34:30.886Z,54.80
2017-09-21T08:36:57.141Z,55.70
2017-09-21T08:39:23.304Z,56.50
2017-09-21T08:41:49.494Z,56.80
2017-09-21T08:44:15.678Z,57.90
2017-09-21T08:46:41.819Z,57.80
2017-09-21T08:49:07.991Z,56.80
2017-09-21T08:51:34.908Z,57.80
2017-09-21T08:54:01.082Z,56.60
2017-09-21T08:56:28.452Z,57.40
2017-09-21T08:58:55.459Z,56.70
2017-09-21T09:01:21.615Z,57.10
2017-09-21T09:03:48.531Z,55.70
2017-09-21T09:06:14.703Z,56.20
2017-09-21T09:08:40.913Z,55.90
2017-09-21T09:11:07.115Z,55.50
2017-09-21T09:13:33.355Z,55.20
2017-09-21T09:15:59.573Z,55.20
2017-09-21T09:18:25.786Z,55.70
2017-09-21T09:20:51.936Z,54.20
2017-09-21T09:23:18.156Z,53.80
2017-09-21T09:25:44.314Z,54.00
2017-09-21T09:28:10.516Z,53.20
2017-09-21T09:30:36.702Z,53.80
2017-09-21T09:33:03.620Z,54.20
2017-09-21T09:35:30.559Z,54.20
2017-09-21T09:37:56.756Z,53.40
2017-09-21T09:40:22.917Z,53.60
2017-09-21T09:42:49.094Z,53.40
2017-09-21T09:45:15.266Z,52.70
2017-09-21T10:00:31.485Z,53.80
2017-09-21T10:02:57.707Z,53.20
2017-09-21T10:05:23.883Z,53.00
2017-09-21T10:07:50.083Z,53.70
2017-09-21T10:10:16.244Z,53.90
2017-09-21T10:12:42.382Z,53.30
2017-09-21T10:15:08.527Z,53.60
2017-09-21T10:17:34.697Z,52.80
2017-09-21T10:20:01.224Z,53.60
2017-09-21T10:22:27.429Z,53.30
2017-09-21T10:24:53.610Z,51.90
2017-09-21T10:27:19.806Z,53.50
2017-09-21T10:29:45.945Z,53.20
2017-09-21T10:32:12.106Z,53.80
2017-09-21T10:34:39.010Z,52.10
2017-09-21T10:37:05.381Z,52.80
2017-09-21T10:39:31.581Z,52.80
2017-09-21T10:41:57.762Z,51.50
2017-09-21T10:44:23.896Z,51.60
2017-09-21T10:46:50.054Z,50.30
2017-09-21T10:49:16.281Z,50.70
2017-09-21T10:51:42.444Z,50.50
2017-09-21T10:54:08.607Z,51.10
2017-09-21T10:56:34.888Z,51.20
2017-09-21T10:59:01.082Z,51.10
2017-09-21T11:01:27.291Z,50.10
2017-09-21T11:03:53.713Z,49.80
2017-09-21T11:06:19.883Z,49.40
2017-09-21T11:08:46.077Z,48.50
2017-09-21T11:11:12.283Z,48.50
2017-09-21T11:13:38.442Z,48.60
2017-09-21T11:16:04.655Z,48.10
2017-09-21T11:18:30.836Z,48.40
2017-09-21T11:20:57.004Z,46.40
2017-09-21T11:23:23.164Z,46.40
2017-09-21T11:25:49.322Z,46.00
2017-09-21T11:28:16.245Z,45.50
2017-09-21T11:30:42.425Z,46.10
2017-09-21T11:33:08.550Z,45.90
2017-09-21T11:35:35.480Z,45.90
2017-09-21T11:38:01.648Z,44.90
2017-09-21T11:40:27.837Z,45.00
2017-09-21T11:42:54.024Z,45.00
2017-09-21T11:45:20.230Z,45.10
2017-09-21T11:47:46.399Z,44.60
2017-09-21T11:50:12.573Z,43.40
2017-09-21T11:52:38.796Z,43.70
2017-09-21T11:55:05.353Z,43.30
2017-09-21T11:57:31.562Z,43.70
2017-09-21T11:59:57.738Z,43.60
2017-09-21T12:02:23.890Z,44.40
2017-09-21T12:04:51.195Z,41.90
2017-09-21T12:07:17.379Z,41.20
2017-09-21T12:09:44.286Z,41.30
2017-09-21T12:12:10.528Z,41.00
2017-09-21T12:14:37.414Z,39.80
2017-09-21T12:17:03.594Z,38.60
2017-09-21T12:19:29.744Z,39.20
2017-09-21T12:21:56.295Z,38.30
2017-09-21T12:24:22.521Z,37.80
2017-09-21T12:26:48.702Z,37.20
2017-09-21T12:29:14.883Z,37.90
2017-09-21T12:31:41.435Z,37.50
2017-09-21T12:34:07.591Z,37.70
2017-09-21T12:36:33.739Z,37.50
2017-09-21T12:38:59.975Z,37.50
2017-09-21T12:41:26.207Z,37.70
2017-09-21T12:43:52.766Z,37.00
2017-09-21T12:46:18.979Z,38.10
2017-09-21T12:48:45.378Z,39.50
2017-09-21T12:51:11.554Z,39.50
2017-09-21T12:53:37.730Z,38.10
2017-09-21T12:56:04.677Z,40.50
2017-09-21T12:58:30.835Z,39.00
2017-09-21T13:00:57.019Z,39.30
2017-09-21T13:03:23.156Z,38.70
2017-09-21T13:05:49.319Z,39.70
2017-09-21T13:08:15.528Z,41.40
2017-09-21T13:10:45.354Z,41.00
2017-09-21T13:13:11.945Z,39.90
2017-09-21T13:15:38.146Z,38.90
2017-09-21T13:18:05.634Z,38.30
2017-09-21T13:20:31.777Z,38.00
2017-09-21T13:22:57.914Z,38.10
2017-09-21T13:25:24.138Z,38.70
2017-09-21T13:27:50.654Z,38.90
2017-09-21T13:30:17.562Z,37.90
2017-09-21T13:32:43.775Z,38.00
2017-09-21T13:35:10.000Z,39.50
2017-09-21T13:37:36.153Z,40.40
2017-09-21T13:40:02.319Z,39.90
2017-09-21T13:42:28.518Z,38.90
2017-09-21T13:44:54.706Z,38.40
2017-09-21T13:47:20.876Z,40.20
2017-09-21T13:49:47.091Z,40.00
2017-09-21T13:52:13.262Z,40.10
2017-09-21T13:54:39.480Z,39.00
2017-09-21T13:57:05.708Z,39.80
2017-09-21T13:59:31.879Z,40.10
2017-09-21T14:01:58.038Z,40.00
2017-09-21T14:04:24.989Z,40.20
2017-09-21T14:06:51.126Z,39.60
2017-09-21T14:09:17.277Z,39.70
2017-09-21T14:11:43.444Z,40.70
2017-09-21T14:14:09.649Z,39.60
2017-09-21T14:16:35.782Z,38.90
2017-09-21T14:19:02.274Z,37.80
2017-09-21T14:21:28.450Z,39.10
2017-09-21T14:23:54.600Z,39.00
2017-09-21T14:26:21.142Z,40.00
2017-09-21T14:28:47.282Z,40.20
2017-09-21T14:31:13.454Z,39.60
2017-09-21T14:33:39.663Z,39.50
2017-09-21T14:36:05.817Z,41.70
2017-09-21T14:38:32.029Z,41.80
2017-09-21T14:40:58.262Z,42.70
2017-09-21T14:43:24.457Z,41.80
2017-09-21T14:45:50.674Z,42.00
2017-09-21T14:48:16.886Z,42.80
2017-09-21T14:50:43.059Z,43.40
2017-09-21T14:53:09.202Z,44.30
2017-09-21T14:55:35.364Z,44.40
2017-09-21T14:58:02.263Z,44.70
2017-09-21T15:00:28.515Z,45.50
2017-09-21T15:02:54.732Z,45.40
2017-09-21T15:05:22.394Z,45.20
2017-09-21T15:07:48.554Z,44.90
2017-09-21T15:10:14.760Z,42.50
2017-09-21T15:12:40.913Z,41.20
2017-09-21T15:15:07.065Z,40.60
2017-09-21T15:17:33.926Z,40.30
2017-09-21T15:20:00.149Z,38.10
2017-09-21T15:22:26.722Z,39.80
2017-09-21T15:24:52.919Z,39.80
2017-09-21T15:27:19.043Z,39.60
2017-09-21T15:29:45.223Z,39.90
2017-09-21T15:32:11.375Z,39.00
2017-09-21T15:34:38.302Z,38.90
2017-09-21T15:37:04.492Z,40.10
2017-09-21T15:39:30.686Z,40.00
2017-09-21T15:41:56.847Z,40.30
2017-09-21T15:44:23.772Z,40.00
2017-09-21T15:46:51.342Z,41.50
2017-09-21T15:49:17.527Z,41.30
2017-09-21T15:51:43.685Z,41.30
2017-09-21T15:54:10.253Z,41.70
2017-09-21T15:56:37.042Z,42.80
2017-09-21T15:59:03.268Z,42.30
2017-09-21T16:01:29.467Z,42.50
2017-09-21T16:03:55.669Z,42.20
2017-09-21T16:06:21.799Z,43.00
2017-09-21T16:08:47.946Z,43.40
2017-09-21T16:11:14.134Z,43.70
2017-09-21T16:13:40.346Z,44.70
2017-09-21T16:16:06.567Z,43.90
2017-09-21T16:18:32.721Z,45.20
2017-09-21T16:20:58.882Z,44.70
2017-09-21T16:23:26.274Z,44.70
2017-09-21T16:25:52.475Z,45.20
2017-09-21T16:28:18.670Z,45.40
2017-09-21T16:30:44.815Z,46.10
2017-09-21T16:33:11.013Z,46.50
2017-09-21T16:35:37.187Z,46.20
2017-09-21T16:38:04.286Z,47.60
2017-09-21T16:40:31.186Z,48.10
2017-09-21T16:42:57.359Z,48.70
2017-09-21T16:45:23.540Z,48.70
2017-09-21T16:47:50.117Z,49.30
2017-09-21T16:50:16.296Z,49.90
2017-09-21T16:52:42.525Z,49.50
2017-09-21T16:55:08.743Z,49.90
2017-09-21T16:57:34.912Z,50.40
2017-09-21T17:00:01.087Z,51.40
2017-09-21T17:02:27.276Z,52.50
2017-09-21T17:04:53.436Z,53.70
2017-09-21T17:07:19.776Z,54.10
2017-09-21T17:09:45.952Z,54.10
2017-09-21T17:12:13.125Z,55.10
2017-09-21T17:14:39.325Z,55.40
2017-09-21T17:17:05.578Z,56.50
2017-09-21T17:19:31.799Z,57.30
2017-09-21T17:21:58.705Z,58.80
2017-09-21T17:24:24.965Z,58.70
2017-09-21T17:26:51.158Z,58.90
2017-09-21T17:29:17.323Z,59.20
2017-09-21T17:31:43.586Z,59.70
2017-09-21T17:34:09.789Z,60.50
2017-09-21T17:36:36.710Z,60.50
2017-09-21T17:39:03.292Z,60.50
2017-09-21T17:41:30.233Z,62.20
2017-09-21T17:43:56.382Z,60.80
2017-09-21T17:46:23.365Z,63.10
2017-09-21T17:48:49.546Z,62.10
2017-09-21T17:51:16.542Z,62.80
2017-09-21T17:53:44.723Z,62.10
2017-09-21T17:56:10.910Z,62.10
2017-09-21T17:58:37.111Z,62.70
2017-09-21T18:01:03.442Z,62.50
2017-09-21T18:03:29.635Z,62.70
2017-09-21T18:05:55.809Z,61.90
2017-09-21T18:08:22.954Z,62.80
2017-09-21T18:10:50.307Z,62.10
2017-09-21T18:13:16.514Z,61.80
2017-09-21T18:15:42.745Z,61.80
2017-09-21T18:18:09.075Z,62.30
2017-09-21T18:20:35.286Z,62.30
2017-09-21T18:23:01.455Z,61.70
2017-09-21T18:25:28.492Z,62.70
2017-09-21T18:27:54.675Z,62.60
2017-09-21T18:30:20.949Z,62.80
2017-09-21T18:32:47.159Z,62.80
2017-09-21T18:35:13.348Z,63.00
2017-09-21T18:37:39.568Z,63.30
2017-09-21T18:40:06.615Z,64.20
2017-09-21T18:42:32.908Z,63.80
2017-09-21T18:44:59.128Z,64.30
2017-09-21T18:47:28.043Z,64.20
2017-09-21T18:49:55.608Z,64.00
2017-09-21T18:52:22.331Z,64.00
2017-09-21T18:54:49.283Z,64.70
2017-09-21T18:57:15.477Z,64.20
2017-09-21T18:59:41.718Z,64.70
2017-09-21T19:02:09.317Z,65.10
2017-09-21T19:04:36.395Z,66.50
2017-09-21T19:07:02.629Z,65.80
2017-09-21T19:09:28.887Z,65.00
2017-09-21T19:11:57.281Z,65.00
2017-09-21T19:14:23.589Z,65.00
2017-09-21T19:16:49.860Z,65.60
2017-09-21T19:19:16.928Z,66.60
2017-09-21T19:21:44.977Z,66.50
2017-09-21T19:24:11.178Z,66.50
2017-09-21T19:26:37.403Z,66.10
2017-09-21T19:29:04.373Z,66.80
2017-09-21T19:31:34.325Z,66.50
2017-09-21T19:34:00.673Z,66.60
2017-09-21T19:36:26.921Z,66.80
2017-09-21T19:38:53.243Z,66.80
2017-09-21T19:41:19.444Z,67.60
2017-09-21T19:43:45.887Z,67.10
2017-09-21T19:46:12.156Z,67.80
2017-09-21T19:48:38.381Z,68.10
2017-09-21T19:51:04.601Z,67.80
2017-09-21T19:53:31.767Z,67.60
2017-09-21T19:55:58.016Z,68.20
2017-09-21T19:58:27.763Z,68.40
2017-09-21T20:00:56.799Z,69.10
2017-09-21T20:03:23.868Z,68.60
2017-09-21T20:05:50.087Z,69.30
2017-09-21T20:08:16.612Z,69.30
2017-09-21T20:10:42.848Z,68.60
2017-09-21T20:13:09.324Z,69.10
2017-09-21T20:15:35.527Z,69.00
2017-09-21T20:18:01.945Z,69.20
2017-09-21T20:20:28.142Z,68.90
2017-09-21T20:22:54.610Z,69.50
2017-09-21T20:25:21.249Z,69.30
2017-09-21T20:27:47.475Z,69.30
2017-09-21T20:30:13.748Z,69.80
2017-09-21T20:32:39.979Z,70.00
2017-09-21T20:35:06.143Z,69.60
2017-09-21T20:37:32.355Z,70.30
2017-09-21T20:39:58.573Z,70.70
2017-09-21T20:42:24.746Z,70.60
2017-09-21T20:44:50.957Z,70.70
2017-09-21T20:47:17.215Z,71.10
2017-09-21T20:49:43.403Z,71.50
2017-09-21T20:52:09.631Z,70.90
2017-09-21T20:54:35.835Z,70.50
2017-09-21T20:57:02.813Z,71.40
2017-09-21T20:59:29.112Z,70.70
2017-09-21T21:01:56.267Z,71.40
2017-09-21T21:04:22.415Z,70.90
2017-09-21T21:06:49.072Z,71.30
2017-09-21T21:09:15.222Z,71.70
2017-09-21T21:11:42.158Z,71.60
2017-09-21T21:14:08.362Z,71.60
2017-09-21T21:16:34.516Z,71.20
2017-09-21T21:19:00.706Z,72.10
2017-09-21T21:21:26.914Z,72.00
2017-09-21T21:23:53.096Z,71.60
2017-09-21T21:26:19.298Z,72.50
2017-09-21T21:28:45.513Z,72.60
2017-09-21T21:31:11.771Z,72.60
2017-09-21T21:33:37.945Z,72.00
2017-09-21T21:36:04.207Z,72.00
2017-09-21T21:38:30.506Z,71.80
2017-09-21T21:40:57.439Z,72.00
2017-09-21T21:43:25.140Z,72.30
2017-09-21T21:45:51.335Z,71.50
2017-09-21T21:48:18.271Z,71.80
2017-09-21T21:50:44.419Z,71.90
2017-09-21T21:53:11.591Z,72.60
2017-09-21T21:55:37.814Z,72.60
2017-09-21T21:58:04.749Z,72.50
2017-09-21T22:00:31.697Z,73.10
2017-09-21T22:02:58.646Z,73.00
2017-09-21T22:05:25.547Z,73.10
2017-09-21T22:07:51.773Z,73.10
2017-09-21T22:10:17.971Z,72.90
2017-09-21T22:12:44.136Z,72.80
2017-09-21T22:15:10.306Z,73.50
2017-09-21T22:17:36.458Z,73.50
2017-09-21T22:20:02.795Z,72.10
2017-09-21T22:22:28.973Z,72.20
2017-09-21T22:24:55.164Z,73.10
2017-09-21T22:27:22.002Z,72.70
2017-09-21T22:29:48.222Z,73.10
2017-09-21T22:32:14.553Z,72.70
2017-09-21T22:34:40.751Z,73.20
2017-09-21T22:37:06.954Z,73.10
2017-09-21T22:39:33.425Z,73.40
2017-09-21T22:41:59.657Z,73.40
2017-09-21T22:44:26.833Z,73.60
2017-09-21T22:46:53.446Z,73.60
2017-09-21T22:49:19.776Z,73.60
2017-09-21T22:51:48.334Z,73.90
2017-09-21T22:54:16.363Z,73.30
2017-09-21T22:56:42.637Z,73.30
2017-09-21T22:59:09.640Z,73.90
2017-09-21T23:01:35.826Z,74.00
2017-09-21T23:04:02.724Z,73.90
2017-09-21T23:06:28.893Z,73.50
2017-09-21T23:08:55.862Z,74.10
2017-09-21T23:11:22.238Z,73.70
2017-09-21T23:13:48.422Z,73.40
2017-09-21T23:16:14.587Z,73.30
2017-09-21T23:18:40.783Z,74.00
2017-09-21T23:21:06.954Z,74.10
2017-09-21T23:23:33.147Z,73.90
2017-09-21T23:25:59.285Z,73.40
2017-09-21T23:28:25.478Z,73.90
2017-09-21T23:30:52.128Z,73.40
2017-09-21T23:33:18.304Z,73.90
2017-09-21T23:35:44.487Z,74.40
2017-09-21T23:38:10.685Z,73.80
2017-09-21T23:40:37.574Z,74.20
2017-09-21T23:43:03.743Z,73.80
2017-09-21T23:45:30.935Z,74.10
2017-09-21T23:47:57.113Z,73.60
2017-09-21T23:50:23.321Z,73.50
2017-09-21T23:52:49.558Z,73.30
2017-09-21T23:55:15.874Z,73.60
2017-09-21T23:57:42.087Z,74.00
